North La Junta, Colorado
Current Conditions -  °F | °C
As of 10:53 PM on Saturday 22 Nov 2014 (Local Time) from KLHX Reporting Station
Clear Clear  
Wind Chill: 41°   Ceiling: Unl
Heat Index: 46°   Visibility: 10mi
Dew Point: 29°   Wind: 12mph
Humidity: 51%   Direction: 270°W
Pressure: 29.52"   Gusts: NA
Location:  37.8368°N, 103.544°W
Report Text: KLHX 230553Z AUTO 27010KT 10SM CLR 08/M02 A2952 RMK AO2 SLP964 T00781017 10139 20078 58004 $
Loading
Personal Weather Stations






























Interactive Weather Map New forecast layout! Learn more

10-Day Weather Forecast

Advertisements
Track Severe Weather on mobile